Sign up to stay up to date on the Templeton Real Estate Market!

or Create your own market report
Active Properties
Address Beds Baths Living ft2 List Price Cost per ft2 DOM
No address 3 3 5,550 $2,950,000 $531 45 days
1445 Godell Street 4 3 3,006 $925,000 $307 58 days
1661 Burnt Rock Way 3 5 4,953 $2,795,000 $564 58 days
1494 Condor Lane 5 3 2,164 $749,900 $346 71 days
3310 Neal Spring Road 3 3 2,634 $1,795,000 $681 113 days
8345 Green Valley Road 5 9 8,193 $8,500,000 $1,037 130 days
Average: 3.8 4.3 4,416 $2,952,483 $578 79 days
Viewing 1 - 6 of 6
Viewing 1 - 6 of 6
Properties Under Contract
Address Beds Baths Living ft2 List Price Cost per ft2 DOM
460 Elizabeth Court 2 2 1,127 $659,000 $584 7 days
1570 Burnt Rock Way 3 4 4,547 $2,827,525 $621 17 days
145 Sweetwater Lane 3 3 1,525 $575,000 $377 22 days
868 Salinas Avenue 2 2 960 $525,000 $546 38 days
713 Peterson Ranch Road 3 2 1,747 $839,000 $480 6 days
172 Rowan Way 4 3 2,015 $825,000 $409 79 days
1550 Winery Canyon Road 3 3 2,369 $2,495,000 $1,053 113 days
430 Cayucos Avenue 3 2 1,088 $495,000 $454 142 days
1457 Condor Lane 3 2 1,384 $654,000 $472 145 days
Average: 2.9 2.6 1,862 $1,099,391 $555 6 days
Viewing 1 - 9 of 9
Viewing 1 - 9 of 9
Sold Properties
Address Beds Baths Living ft2 List Price Sold Price Cost per ft2 DOM Sold Date
157 Mockingbird Lane 3 2 1,627 $645,000 $675,000 $414 0 days 12/29/21
1530 Granache Way 3 3 2,195 $1,050,000 $1,025,000 $466 0 days 12/28/21
136 Sweetwater Lane 3 3 1,380 $579,950 $612,000 $443 0 days 12/27/21
180 Julie Lane 3 2 1,732 $715,000 $710,000 $409 17 days 12/17/21
350 Ward Court 3 3 1,587 $669,000 $663,000 $417 72 days 12/17/21
2325 Warm Springs Lane 3 4 4,123 $2,795,000 $2,700,000 $654 3 days 12/14/21
134 Wessels Way 3 2 1,344 $599,000 $655,000 $487 0 days 12/13/21
469 Eric Lane 4 3 2,325 $749,000 $729,000 $313 57 days 12/13/21
1735 Las Tablas Road 2 1 884 $930,000 $900,000 $1,018 0 days 12/10/21
3030 Road Runner Lane 4 3 2,500 $1,150,000 $1,135,000 $454 0 days 12/3/21
550 Templeton Road 1 1 1,007 $1,550,000 $1,350,000 $1,340 126 days 12/3/21
172 Helgren Court 3 3 2,402 $899,000 $1,000,000 $416 0 days 11/29/21
177 Sweetwater Lane 3 3 1,539 $599,900 $600,000 $389 0 days 11/24/21
406 Eric Lane 3 2 1,374 $635,000 $600,000 $436 1 day 11/15/21
150 7th Street 2 3 2,356 $625,000 $620,000 $263 0 days 11/12/21
108 Rowan Way 3 3 1,680 $765,000 $765,000 $455 17 days 11/12/21
765 Peterson Ranch Road 5 4 2,674 $867,000 $880,000 $329 0 days 11/10/21
1744 Santa Rita Road 4 3 1,920 $950,900 $1,220,000 $635 0 days 11/8/21
525 Salinas Avenue 3 3 1,976 $699,000 $699,000 $353 0 days 11/1/21
530 Santa Rita Road 4 2 1,827 $875,000 $940,000 $514 0 days 10/29/21
1940 Laguna Del Campo 3 3 3,586 $1,675,000 $1,775,000 $494 0 days 10/28/21
5330 Dana Lane 4 4 3,167 $2,695,000 $2,500,420 $789 208 days 10/25/21
160 Reflection Place 3 3 1,539 $560,000 $595,000 $386 0 days 10/22/21
161 Julie Lane 3 2 1,795 $659,000 $659,000 $367 0 days 10/22/21
3568 Trails End 3 2 1,860 $950,000 $930,000 $500 22 days 10/20/21
2440 Laguna Del Campo 3 4 3,167 $1,495,000 $1,560,000 $492 0 days 10/12/21
5180 Baggins Hill Road 4 2 2,656 $849,999 $850,000 $320 41 days 10/8/21
729 Gough Avenue 3 2 1,260 $645,000 $645,000 $511 0 days 10/6/21
55 River Run Road 3 2 1,488 $599,000 $599,000 $402 10 days 10/6/21
499 Hawley Street 3 2 1,308 $629,000 $615,000 $470 0 days 10/4/21
945 Santa Rita Road 3 3 1,979 $985,000 $986,910 $498 0 days 9/30/21
565 Salinas Avenue 3 3 2,050 $720,000 $705,000 $343 45 days 9/30/21
720 Salinas Avenue 4 2 1,758 $675,000 $702,000 $399 0 days 9/28/21
220 Granite Road 3 3 1,829 $739,000 $725,000 $396 0 days 9/24/21
1848 Orlen Lane 4 3 3,567 $1,500,000 $1,500,000 $420 0 days 9/17/21
110 Foxtail Lane 3 2 1,892 $830,000 $855,000 $451 0 days 9/13/21
1215 Santa Rita Road 5 4 3,118 $1,499,000 $1,744,400 $559 0 days 9/10/21
765 Vaquero Road 3 3 2,000 $975,000 $989,000 $494 10 days 9/10/21
1685 Sandalwood Lane 3 2 1,817 $875,000 $875,000 $481 0 days 9/7/21
1420 Meadow View Lane 4 4 3,850 $2,000,000 $1,990,000 $516 0 days 9/2/21
960 Peterson Ranch Road 3 2 1,852 $889,000 $889,000 $480 0 days 9/1/21
1204 Wine Country Place 3 3 1,980 $975,000 $947,000 $478 0 days 9/1/21
35 Hawley Street 4 2 1,550 $599,000 $625,000 $403 0 days 9/1/21
136 Rowan Way 3 3 1,690 $650,000 $700,000 $414 0 days 9/1/21
121 Headwaters Road 3 2 1,485 $612,000 $620,000 $417 38 days 8/31/21
1750 Vineyard Drive 3 3 1,814 $975,000 $965,000 $531 0 days 8/31/21
6850 E. Highway 41 2 2 2,021 $1,399,900 $1,300,000 $643 81 days 8/31/21
336 Willhoit Lane 3 4 1,680 $695,000 $777,000 $462 0 days 8/27/21
1415 Whippoorwill Lane 3 2 1,627 $599,000 $597,500 $367 0 days 8/26/21
60 Corrietta Court 3 3 1,504 $530,000 $530,000 $352 0 days 8/13/21
Average: 3.2 2.8 2,069 $951,050 $957,720 $465 1 day
Viewing 1 - 50 of 64
Viewing 1 - 50 of 64

Based on information from California Regional Multiple Listing Service, Inc. as of . This information is for your personal, non-commercial use and may not be used for any purpose other than to identify prospective properties you may be interested in purchasing. Display of MLS data is usually deemed reliable but is NOT guaranteed accurate by the MLS. Buyers are responsible for verifying the accuracy of all information and should investigate the data themselves or retain appropriate professionals. Information from sources other than the Listing Agent may have been included in the MLS data. Unless otherwise specified in writing, Broker/Agent has not and will not verify any information obtained from other sources. The Broker/Agent providing the information contained herein may or may not have been the Listing and/or Selling Agent.